createdAt,value
2017-08-19T00:00:10.882Z,10.33
2017-08-19T00:02:38.274Z,9.03
2017-08-19T00:05:05.663Z,9.33
2017-08-19T00:07:33.063Z,9.40
2017-08-19T00:10:00.447Z,7.23
2017-08-19T00:12:27.849Z,9.50
2017-08-19T00:14:55.236Z,6.17
2017-08-19T00:17:22.655Z,13.60
2017-08-19T00:19:50.039Z,6.97
2017-08-19T00:22:17.422Z,7.70
2017-08-19T00:24:44.830Z,6.73
2017-08-19T00:27:12.211Z,7.20
2017-08-19T00:29:39.607Z,9.67
2017-08-19T00:32:06.995Z,7.23
2017-08-19T00:34:34.396Z,12.07
2017-08-19T00:37:01.779Z,6.70
2017-08-19T00:39:29.192Z,10.60
2017-08-19T00:41:56.583Z,13.07
2017-08-19T00:44:23.977Z,7.13
2017-08-19T00:46:51.360Z,6.00
2017-08-19T00:49:18.754Z,5.13
2017-08-19T00:51:46.138Z,5.60
2017-08-19T00:54:13.522Z,7.30
2017-08-19T00:56:40.919Z,6.50
2017-08-19T00:59:08.320Z,5.00
2017-08-19T01:01:35.718Z,7.50
2017-08-19T01:04:03.115Z,5.83
2017-08-19T01:06:30.498Z,5.03
2017-08-19T01:08:57.903Z,4.80
2017-08-19T01:11:25.306Z,4.40
2017-08-19T01:13:52.706Z,6.80
2017-08-19T01:16:20.090Z,3.93
2017-08-19T01:18:47.482Z,4.37
2017-08-19T01:21:14.870Z,5.13
2017-08-19T01:23:42.258Z,4.50
2017-08-19T01:26:21.434Z,2.73
2017-08-19T01:28:48.834Z,3.53
2017-08-19T01:31:16.223Z,3.47
2017-08-19T01:33:43.611Z,5.07
2017-08-19T01:36:11.003Z,6.23
2017-08-19T01:38:38.393Z,3.87
2017-08-19T01:41:05.787Z,5.07
2017-08-19T01:43:33.199Z,14.00
2017-08-19T01:46:00.598Z,7.80
2017-08-19T01:48:27.987Z,4.30
2017-08-19T01:50:55.384Z,5.63
2017-08-19T01:53:22.772Z,5.37
2017-08-19T01:55:50.168Z,6.33
2017-08-19T01:58:17.555Z,3.50
2017-08-19T02:00:44.962Z,4.43
2017-08-19T02:03:12.354Z,3.80
2017-08-19T02:05:39.753Z,3.60
2017-08-19T02:08:07.146Z,8.10
2017-08-19T02:10:34.534Z,16.57
2017-08-19T02:13:01.930Z,7.83
2017-08-19T02:15:29.324Z,6.33
2017-08-19T02:17:56.765Z,9.00
2017-08-19T02:20:24.152Z,4.57
2017-08-19T02:22:51.547Z,4.10
2017-08-19T02:25:18.942Z,4.33
2017-08-19T02:27:46.327Z,7.30
2017-08-19T02:30:13.710Z,4.53
2017-08-19T02:32:41.106Z,6.63
2017-08-19T02:35:08.494Z,5.23
2017-08-19T02:37:35.892Z,11.70
2017-08-19T02:40:03.277Z,7.80
2017-08-19T02:42:30.674Z,12.90
2017-08-19T02:44:58.059Z,5.07
2017-08-19T02:47:25.450Z,4.40
2017-08-19T02:49:52.840Z,6.40
2017-08-19T02:52:20.247Z,4.60
2017-08-19T02:54:47.635Z,8.77
2017-08-19T02:57:15.020Z,5.50
2017-08-19T02:59:42.422Z,11.40
2017-08-19T03:02:09.825Z,11.73
2017-08-19T03:04:37.215Z,7.10
2017-08-19T03:07:04.606Z,7.20
2017-08-19T03:09:31.995Z,9.20
2017-08-19T03:11:59.383Z,14.90
2017-08-19T03:14:26.784Z,8.13
2017-08-19T03:16:54.168Z,7.33
2017-08-19T03:19:21.570Z,13.73
2017-08-19T03:21:48.958Z,12.43
2017-08-19T03:24:16.359Z,13.00
2017-08-19T03:26:43.974Z,10.60
2017-08-19T03:29:11.375Z,8.23
2017-08-19T03:31:38.763Z,5.33
2017-08-19T03:34:06.157Z,9.80
2017-08-19T03:36:33.556Z,16.33
2017-08-19T03:39:00.946Z,15.33
2017-08-19T03:41:28.343Z,8.93
2017-08-19T03:43:55.759Z,7.43
2017-08-19T03:46:23.152Z,8.20
2017-08-19T03:48:50.538Z,9.90
2017-08-19T03:51:17.939Z,8.60
2017-08-19T03:53:45.326Z,8.83
2017-08-19T03:56:12.719Z,10.63
2017-08-19T03:58:40.116Z,12.93
2017-08-19T04:01:07.530Z,10.20
2017-08-19T04:03:34.928Z,16.70
2017-08-19T04:06:02.327Z,11.87
2017-08-19T04:08:29.719Z,12.87
2017-08-19T04:10:57.118Z,24.67
2017-08-19T04:13:24.510Z,10.00
2017-08-19T04:15:51.911Z,9.03
2017-08-19T04:18:19.315Z,12.03
2017-08-19T04:20:46.715Z,12.00
2017-08-19T04:23:14.107Z,12.43
2017-08-19T04:25:41.507Z,11.83
2017-08-19T04:28:08.914Z,24.20
2017-08-19T04:30:36.313Z,12.93
2017-08-19T04:33:03.719Z,12.53
2017-08-19T04:35:31.123Z,12.43
2017-08-19T04:37:58.531Z,16.73
2017-08-19T04:40:25.923Z,11.80
2017-08-19T04:42:53.339Z,14.40
2017-08-19T04:45:20.732Z,13.73
2017-08-19T04:47:48.127Z,13.63
2017-08-19T04:50:15.518Z,14.07
2017-08-19T04:52:42.975Z,16.93
2017-08-19T04:55:10.351Z,14.70
2017-08-19T04:57:37.758Z,19.93
2017-08-19T05:00:05.150Z,14.60
2017-08-19T05:02:32.551Z,13.53
2017-08-19T05:04:59.956Z,16.97
2017-08-19T05:07:27.354Z,9.70
2017-08-19T05:09:54.747Z,13.73
2017-08-19T05:12:22.139Z,16.10
2017-08-19T05:14:49.526Z,18.90
2017-08-19T05:17:16.939Z,13.90
2017-08-19T05:19:44.335Z,18.30
2017-08-19T05:22:11.734Z,14.50
2017-08-19T05:24:39.126Z,14.50
2017-08-19T05:27:06.515Z,14.03
2017-08-19T05:29:33.921Z,21.40
2017-08-19T05:32:01.335Z,16.57
2017-08-19T05:34:28.735Z,19.10
2017-08-19T05:36:56.150Z,14.27
2017-08-19T05:39:23.742Z,17.80
2017-08-19T05:41:51.133Z,18.33
2017-08-19T05:44:18.742Z,17.37
2017-08-19T05:46:46.142Z,15.87
2017-08-19T05:49:13.555Z,21.60
2017-08-19T05:51:40.948Z,19.30
2017-08-19T05:54:08.359Z,28.40
2017-08-19T05:56:35.763Z,23.50
2017-08-19T05:59:03.172Z,17.03
2017-08-19T06:01:30.803Z,18.47
2017-08-19T06:03:58.195Z,17.80
2017-08-19T06:06:25.593Z,18.80
2017-08-19T06:08:52.988Z,22.80
2017-08-19T06:11:20.384Z,21.97
2017-08-19T06:13:47.793Z,13.53
2017-08-19T06:16:15.183Z,18.33
2017-08-19T06:18:42.605Z,22.60
2017-08-19T06:21:09.982Z,18.27
2017-08-19T06:23:37.402Z,19.60
2017-08-19T06:26:04.794Z,24.93
2017-08-19T06:28:32.182Z,15.33
2017-08-19T06:30:59.587Z,16.20
2017-08-19T06:33:27.226Z,12.37
2017-08-19T06:35:54.622Z,29.53
2017-08-19T06:38:22.027Z,17.53
2017-08-19T06:40:49.414Z,16.73
2017-08-19T06:43:16.807Z,10.07
2017-08-19T06:45:44.216Z,12.17
2017-08-19T06:48:11.627Z,21.90
2017-08-19T06:50:39.025Z,22.77
2017-08-19T06:53:06.428Z,20.23
2017-08-19T06:55:33.835Z,16.97
2017-08-19T06:58:01.231Z,21.37
2017-08-19T07:00:28.667Z,33.03
2017-08-19T07:02:56.063Z,20.10
2017-08-19T07:05:23.468Z,23.90
2017-08-19T07:07:50.866Z,20.50
2017-08-19T07:10:18.260Z,26.43
2017-08-19T07:12:45.674Z,21.03
2017-08-19T07:15:13.082Z,16.40
2017-08-19T07:17:40.479Z,23.77
2017-08-19T07:20:07.871Z,18.40
2017-08-19T07:22:35.280Z,22.70
2017-08-19T07:25:02.678Z,14.87
2017-08-19T07:27:30.079Z,26.33
2017-08-19T07:29:57.471Z,16.83
2017-08-19T07:32:24.870Z,21.57
2017-08-19T07:34:52.283Z,16.33
2017-08-19T07:37:19.684Z,25.67
2017-08-19T07:39:47.079Z,20.60
2017-08-19T07:42:14.485Z,22.50
2017-08-19T07:44:41.879Z,19.33
2017-08-19T07:47:09.274Z,19.13
2017-08-19T07:49:36.666Z,20.50
2017-08-19T07:52:04.072Z,20.83
2017-08-19T07:54:31.470Z,14.67
2017-08-19T07:56:58.879Z,22.90
2017-08-19T07:59:26.272Z,23.90
2017-08-19T08:01:53.662Z,16.40
2017-08-19T08:04:21.071Z,84.57
2017-08-19T08:06:48.463Z,35.93
2017-08-19T08:09:15.855Z,29.47
2017-08-19T08:11:43.250Z,35.87
2017-08-19T08:14:10.698Z,43.17
2017-08-19T08:16:38.094Z,12.77
2017-08-19T08:19:05.494Z,16.83
2017-08-19T08:21:32.886Z,11.17
2017-08-19T08:24:00.308Z,16.03
2017-08-19T08:26:27.694Z,28.67
2017-08-19T08:28:55.094Z,16.13
2017-08-19T08:31:22.506Z,20.27
2017-08-19T08:33:49.894Z,13.53
2017-08-19T08:36:17.286Z,20.83
2017-08-19T08:38:44.703Z,19.63
2017-08-19T08:41:12.098Z,18.43
2017-08-19T08:43:39.504Z,13.07
2017-08-19T08:46:06.906Z,8.10
2017-08-19T08:48:34.329Z,16.30
2017-08-19T08:51:02.259Z,9.27
2017-08-19T08:53:29.654Z,9.30
2017-08-19T08:55:57.064Z,16.00
2017-08-19T08:58:24.447Z,14.20
2017-08-19T09:00:51.866Z,14.73
2017-08-19T09:03:19.263Z,11.27
2017-08-19T09:05:46.676Z,17.63
2017-08-19T09:08:14.075Z,15.20
2017-08-19T09:10:41.488Z,10.63
2017-08-19T09:13:08.872Z,10.77
2017-08-19T09:15:36.275Z,6.97
2017-08-19T09:18:03.685Z,11.17
2017-08-19T09:20:31.315Z,15.40
2017-08-19T09:22:58.702Z,21.50
2017-08-19T09:25:26.122Z,13.10
2017-08-19T09:27:53.527Z,14.33
2017-08-19T09:30:20.943Z,13.40
2017-08-19T09:32:48.339Z,16.40
2017-08-19T09:35:15.742Z,13.63
2017-08-19T09:37:43.235Z,11.33
2017-08-19T09:40:10.621Z,7.80
2017-08-19T09:42:38.004Z,9.17
2017-08-19T09:45:05.399Z,15.10
2017-08-19T09:47:32.807Z,16.17
2017-08-19T09:50:00.200Z,8.83
2017-08-19T09:52:27.603Z,10.57
2017-08-19T09:54:55.008Z,15.10
2017-08-19T09:57:23.195Z,13.23
2017-08-19T09:59:50.622Z,12.40
2017-08-19T10:02:18.003Z,18.73
2017-08-19T10:04:45.390Z,9.33
2017-08-19T10:07:12.795Z,13.10
2017-08-19T10:09:54.931Z,15.00
2017-08-19T10:12:22.330Z,18.87
2017-08-19T10:14:49.724Z,7.17
2017-08-19T10:17:17.127Z,13.50
2017-08-19T10:19:44.514Z,7.30
2017-08-19T10:22:11.919Z,19.77
2017-08-19T10:24:39.313Z,18.97
2017-08-19T10:27:06.719Z,15.23
2017-08-19T10:29:34.111Z,13.50
2017-08-19T10:32:01.540Z,12.33
2017-08-19T10:34:28.927Z,19.30
2017-08-19T10:36:56.330Z,15.30
2017-08-19T10:39:23.726Z,13.23
2017-08-19T10:41:51.139Z,14.63
2017-08-19T10:44:18.538Z,16.30
2017-08-19T10:46:45.921Z,9.37
2017-08-19T10:49:13.331Z,15.70
2017-08-19T10:51:40.722Z,13.63
2017-08-19T10:54:08.134Z,6.43
2017-08-19T10:56:35.537Z,17.40
2017-08-19T10:59:02.941Z,20.77
2017-08-19T11:01:30.347Z,13.63
2017-08-19T11:03:57.771Z,13.40
2017-08-19T11:06:25.154Z,7.00
2017-08-19T11:08:52.548Z,7.80
2017-08-19T11:11:19.948Z,10.07
2017-08-19T11:13:47.358Z,11.20
2017-08-19T11:16:14.743Z,10.47
2017-08-19T11:18:42.225Z,4.43
2017-08-19T11:21:09.600Z,9.97
2017-08-19T11:23:37.003Z,4.90
2017-08-19T11:26:04.392Z,6.70
2017-08-19T11:28:31.823Z,12.60
2017-08-19T11:30:59.207Z,11.03
2017-08-19T11:33:26.598Z,6.50
2017-08-19T11:35:54.006Z,10.93
2017-08-19T11:38:21.406Z,11.90
2017-08-19T11:40:48.811Z,10.60
2017-08-19T11:43:16.498Z,11.60
2017-08-19T11:45:43.909Z,7.13
2017-08-19T11:48:11.330Z,11.90
2017-08-19T11:50:38.723Z,11.27
2017-08-19T11:53:06.107Z,9.10
2017-08-19T11:55:33.498Z,6.30
2017-08-19T11:58:00.913Z,10.07
2017-08-19T12:00:28.333Z,6.53
2017-08-19T12:02:55.724Z,6.50
2017-08-19T12:05:23.136Z,7.07
2017-08-19T12:07:50.526Z,10.13
2017-08-19T12:10:17.970Z,15.17
2017-08-19T12:12:45.359Z,13.90
2017-08-19T12:15:12.815Z,10.53
2017-08-19T12:17:40.290Z,6.57
2017-08-19T12:20:07.878Z,16.00
2017-08-19T12:22:36.840Z,8.80
2017-08-19T12:25:04.312Z,4.90
2017-08-19T12:27:31.703Z,7.03
2017-08-19T12:30:02.501Z,8.00
2017-08-19T12:32:30.583Z,5.80
2017-08-19T12:34:57.974Z,7.83
2017-08-19T12:37:25.391Z,4.77
2017-08-19T12:39:52.786Z,4.90
2017-08-19T12:42:20.228Z,5.70
2017-08-19T12:44:47.595Z,8.17
2017-08-19T12:47:14.996Z,3.77
2017-08-19T12:49:42.861Z,7.87
2017-08-19T12:52:10.645Z,2.00
2017-08-19T12:57:28.383Z,8.10
2017-08-19T12:59:55.819Z,6.10
2017-08-19T13:02:23.391Z,4.10
2017-08-19T13:04:51.195Z,9.70
2017-08-19T13:07:18.638Z,4.67
2017-08-19T13:09:46.022Z,6.63
2017-08-19T13:12:13.435Z,5.83
2017-08-19T13:14:40.839Z,6.87
2017-08-19T13:17:08.224Z,7.10
2017-08-19T13:19:35.612Z,5.07
2017-08-19T13:22:03.007Z,7.90
2017-08-19T13:24:30.420Z,8.13
2017-08-19T13:26:58.019Z,7.73
2017-08-19T13:29:25.420Z,8.07
2017-08-19T13:31:52.810Z,2.80
2017-08-19T13:34:20.265Z,7.60
2017-08-19T13:36:47.655Z,5.67
2017-08-19T13:39:15.047Z,7.80
2017-08-19T13:41:42.435Z,8.83
2017-08-19T13:44:09.837Z,6.60
2017-08-19T13:46:37.226Z,4.70
2017-08-19T13:49:04.629Z,3.90
2017-08-19T13:51:32.011Z,3.23
2017-08-19T13:53:59.407Z,6.50
2017-08-19T13:56:26.799Z,5.23
2017-08-19T13:58:54.214Z,6.60
2017-08-19T14:01:21.635Z,4.67
2017-08-19T14:03:49.031Z,5.43
2017-08-19T14:06:16.429Z,5.53
2017-08-19T14:08:43.832Z,5.50
2017-08-19T14:11:11.240Z,5.40
2017-08-19T14:13:38.629Z,7.60
2017-08-19T14:16:06.028Z,7.83
2017-08-19T14:18:33.447Z,10.90
2017-08-19T14:21:00.838Z,7.30
2017-08-19T14:23:28.230Z,8.73
2017-08-19T14:25:55.628Z,10.87
2017-08-19T14:28:23.026Z,3.87
2017-08-19T14:30:50.535Z,6.53
2017-08-19T14:33:17.931Z,6.27
2017-08-19T14:35:45.319Z,9.37
2017-08-19T14:38:12.931Z,6.03
2017-08-19T14:40:40.327Z,9.13
2017-08-19T14:43:07.714Z,4.37
2017-08-19T14:45:35.115Z,5.40
2017-08-19T14:48:02.503Z,8.80
2017-08-19T14:50:29.910Z,3.37
2017-08-19T14:52:57.315Z,3.47
2017-08-19T14:55:24.726Z,6.20
2017-08-19T14:57:52.114Z,3.53
2017-08-19T15:00:19.511Z,11.10
2017-08-19T15:02:46.907Z,4.37
2017-08-19T15:05:14.316Z,3.63
2017-08-19T15:07:41.707Z,8.93
2017-08-19T15:10:09.101Z,5.20
2017-08-19T15:12:36.483Z,7.10
2017-08-19T15:15:03.871Z,4.20
2017-08-19T15:17:31.908Z,8.73
2017-08-19T15:19:59.303Z,9.60
2017-08-19T15:22:26.723Z,5.97
2017-08-19T15:24:54.112Z,6.17
2017-08-19T15:27:21.506Z,6.87
2017-08-19T15:29:48.908Z,3.93
2017-08-19T15:32:16.299Z,4.50
2017-08-19T15:34:43.703Z,7.30
2017-08-19T15:37:11.098Z,5.93
2017-08-19T15:39:38.507Z,7.50
2017-08-19T15:42:05.907Z,2.97
2017-08-19T15:44:33.308Z,6.67
2017-08-19T15:47:00.910Z,8.90
2017-08-19T15:49:28.303Z,5.60
2017-08-19T15:51:55.715Z,3.57
2017-08-19T15:54:23.103Z,5.10
2017-08-19T15:56:50.507Z,14.40
2017-08-19T15:59:17.938Z,4.17
2017-08-19T16:01:45.335Z,5.70
2017-08-19T16:04:12.741Z,10.23
2017-08-19T16:06:40.139Z,9.70
2017-08-19T16:09:08.067Z,6.53
2017-08-19T16:11:35.447Z,8.10
2017-08-19T16:14:02.888Z,7.83
2017-08-19T16:16:30.284Z,2.90
2017-08-19T16:18:57.675Z,5.33
2017-08-19T16:21:25.065Z,5.00
2017-08-19T16:23:52.464Z,5.47
2017-08-19T16:26:19.963Z,6.30
2017-08-19T16:28:47.352Z,3.40
2017-08-19T16:31:14.768Z,5.07
2017-08-19T16:33:42.186Z,5.10
2017-08-19T16:36:09.579Z,5.70
2017-08-19T16:38:36.975Z,3.77
2017-08-19T16:41:04.368Z,7.10
2017-08-19T16:43:31.763Z,4.23
2017-08-19T16:45:59.156Z,9.93
2017-08-19T16:48:26.554Z,6.10
2017-08-19T16:50:53.940Z,8.27
2017-08-19T16:53:21.318Z,5.00
2017-08-19T16:55:48.726Z,9.80
2017-08-19T16:58:16.104Z,5.00
2017-08-19T17:00:43.503Z,5.83
2017-08-19T17:03:10.899Z,2.90
2017-08-19T17:05:38.297Z,5.43
2017-08-19T17:08:05.690Z,9.43
2017-08-19T17:10:33.309Z,4.70
2017-08-19T17:13:00.692Z,5.57
2017-08-19T17:15:28.095Z,3.27
2017-08-19T17:17:55.476Z,7.07
2017-08-19T17:20:22.876Z,8.40
2017-08-19T17:22:50.267Z,4.07
2017-08-19T17:25:17.678Z,4.93
2017-08-19T17:27:45.067Z,4.13
2017-08-19T17:30:12.466Z,9.87
2017-08-19T17:32:39.856Z,4.50
2017-08-19T17:35:07.246Z,7.83
2017-08-19T17:37:34.852Z,2.83
2017-08-19T17:40:02.253Z,1.50
2017-08-19T17:42:29.652Z,1.10
2017-08-19T17:44:57.034Z,1.30
2017-08-19T17:47:24.431Z,2.40
2017-08-19T17:49:51.828Z,7.00
2017-08-19T17:52:19.219Z,2.20
2017-08-19T17:54:46.610Z,4.00
2017-08-19T17:57:14.007Z,5.80
2017-08-19T17:59:41.400Z,3.07
2017-08-19T18:02:08.802Z,4.07
2017-08-19T18:04:36.403Z,0.90
2017-08-19T18:07:04.508Z,1.30
2017-08-19T18:09:31.902Z,2.50
2017-08-19T18:11:59.306Z,1.90
2017-08-19T18:14:26.727Z,1.20
2017-08-19T18:16:54.117Z,2.20
2017-08-19T18:19:21.512Z,1.17
2017-08-19T18:21:48.996Z,0.80
2017-08-19T18:24:16.371Z,1.10
2017-08-19T18:26:43.772Z,1.57
2017-08-19T18:29:11.161Z,2.57
2017-08-19T18:31:38.555Z,2.50
2017-08-19T18:34:05.964Z,2.20
2017-08-19T18:36:33.376Z,0.90
2017-08-19T18:39:00.782Z,2.07
2017-08-19T18:41:28.199Z,3.60
2017-08-19T18:43:55.584Z,1.00
2017-08-19T18:46:22.982Z,1.07
2017-08-19T18:48:50.371Z,2.20
2017-08-19T18:51:17.769Z,1.20
2017-08-19T18:53:45.163Z,1.40
2017-08-19T18:56:12.564Z,1.20
2017-08-19T18:58:39.949Z,3.53
2017-08-19T19:01:07.350Z,1.80
2017-08-19T19:03:34.746Z,3.93
2017-08-19T19:06:02.137Z,1.40
2017-08-19T19:08:29.536Z,4.83
2017-08-19T19:10:56.924Z,1.77
2017-08-19T19:13:24.327Z,3.10
2017-08-19T19:15:51.717Z,2.20
2017-08-19T19:18:19.115Z,4.27
2017-08-19T19:20:46.716Z,1.30
2017-08-19T19:23:14.111Z,3.00
2017-08-19T19:25:41.495Z,2.40
2017-08-19T19:28:08.887Z,2.07
2017-08-19T19:30:36.282Z,2.30
2017-08-19T19:33:03.679Z,2.50
2017-08-19T19:35:31.070Z,1.20
2017-08-19T19:37:58.468Z,3.17
2017-08-19T19:40:25.855Z,4.03
2017-08-19T19:42:53.268Z,3.37
2017-08-19T19:45:20.871Z,1.37
2017-08-19T19:47:48.281Z,3.53
2017-08-19T19:50:15.671Z,1.20
2017-08-19T19:52:43.060Z,2.30
2017-08-19T19:55:10.455Z,1.60
2017-08-19T19:57:37.835Z,1.73
2017-08-19T20:00:05.247Z,1.40
2017-08-19T20:02:32.847Z,2.27
2017-08-19T20:05:00.239Z,2.00
2017-08-19T20:07:27.628Z,2.97
2017-08-19T20:09:55.031Z,4.00
2017-08-19T20:12:22.433Z,2.87
2017-08-19T20:14:49.825Z,2.20
2017-08-19T20:17:17.207Z,1.50
2017-08-19T20:19:44.606Z,3.43
2017-08-19T20:22:11.991Z,3.30
2017-08-19T20:24:39.396Z,1.93
2017-08-19T20:27:06.825Z,1.17
2017-08-19T20:29:34.419Z,3.77
2017-08-19T20:32:02.026Z,1.73
2017-08-19T20:34:29.422Z,1.80
2017-08-19T20:36:56.822Z,6.20
2017-08-19T20:39:24.215Z,2.80
2017-08-19T20:41:51.609Z,2.97
2017-08-19T20:44:18.995Z,2.73
2017-08-19T20:46:46.379Z,1.70
2017-08-19T20:49:13.780Z,5.27
2017-08-19T20:54:16.148Z,3.13
2017-08-19T20:56:43.556Z,2.27
2017-08-19T20:59:10.943Z,1.83
2017-08-19T21:01:38.334Z,1.33
2017-08-19T21:04:05.744Z,2.03
2017-08-19T21:06:33.204Z,5.80
2017-08-19T21:09:00.607Z,3.30
2017-08-19T21:11:27.995Z,4.03
2017-08-19T21:13:55.433Z,4.07
2017-08-19T21:16:22.825Z,1.97
2017-08-19T21:18:50.284Z,2.00
2017-08-19T21:21:17.655Z,3.43
2017-08-19T21:23:45.048Z,4.50
2017-08-19T21:26:12.447Z,2.27
2017-08-19T21:28:39.855Z,1.90
2017-08-19T21:31:07.231Z,3.50
2017-08-19T21:33:34.615Z,2.43
2017-08-19T21:36:02.231Z,3.00
2017-08-19T21:38:29.625Z,4.00
2017-08-19T21:40:57.027Z,3.63
2017-08-19T21:43:24.424Z,2.57
2017-08-19T21:45:51.839Z,1.90
2017-08-19T21:48:19.232Z,3.40
2017-08-19T21:50:46.611Z,8.07
2017-08-19T21:53:14.009Z,2.83
2017-08-19T21:55:41.407Z,2.20
2017-08-19T21:58:08.799Z,3.40
2017-08-19T22:00:36.188Z,3.25
2017-08-19T22:03:03.579Z,3.50
2017-08-19T22:05:31.039Z,8.43
2017-08-19T22:07:58.430Z,2.70
2017-08-19T22:10:25.822Z,6.67
2017-08-19T22:12:53.215Z,4.73
2017-08-19T22:15:20.599Z,4.40
2017-08-19T22:17:47.994Z,4.20
2017-08-19T22:20:15.473Z,1.93
2017-08-19T22:22:42.843Z,8.00
2017-08-19T22:25:10.231Z,2.10
2017-08-19T22:27:37.647Z,2.20
2017-08-19T22:30:05.106Z,6.80
2017-08-19T22:32:32.484Z,2.40
2017-08-19T22:34:59.887Z,2.73
2017-08-19T22:37:27.270Z,2.30
2017-08-19T22:39:54.666Z,5.10
2017-08-19T22:42:22.062Z,5.53
2017-08-19T22:44:49.454Z,2.93
2017-08-19T22:47:17.047Z,4.30
2017-08-19T22:49:44.544Z,10.33
2017-08-19T22:52:11.923Z,3.73
2017-08-19T22:54:39.310Z,9.90
2017-08-19T22:57:06.699Z,4.90
2017-08-19T22:59:34.306Z,3.23
2017-08-19T23:02:01.712Z,3.13
2017-08-19T23:04:29.107Z,4.50
2017-08-19T23:06:56.496Z,3.30
2017-08-19T23:09:23.896Z,3.00
2017-08-19T23:11:51.284Z,8.33
2017-08-19T23:14:18.670Z,3.07
2017-08-19T23:16:46.059Z,4.70
2017-08-19T23:19:13.450Z,4.20
2017-08-19T23:21:40.855Z,4.33
2017-08-19T23:24:08.255Z,3.73
2017-08-19T23:26:35.656Z,3.83
2017-08-19T23:29:03.063Z,4.57
2017-08-19T23:31:30.471Z,4.67
2017-08-19T23:33:58.763Z,4.93
2017-08-19T23:36:26.159Z,7.77
2017-08-19T23:38:53.554Z,6.83
2017-08-19T23:41:20.951Z,5.83
2017-08-19T23:43:48.327Z,7.53
2017-08-19T23:46:15.723Z,5.10
2017-08-19T23:48:43.335Z,5.83
2017-08-19T23:51:10.740Z,5.87
2017-08-19T23:53:38.135Z,5.23
2017-08-19T23:56:05.532Z,9.13
2017-08-19T23:58:32.927Z,6.90
